POGODA: Poland

Lotnisko: Rzeszow-Jasionka

METAR KOD: EPRZ


METAR: EPRZ 311200Z 34005KT 4000 BR BKN006 OVC009 07/06 Q1028


BLOK
Pogoda METAR
311200Z
Dzien: 31, Godzina: 12:00 UTC.
34005KT
Wiatr z kierunku 340, o predkosci 9 km/h
4000
Widzialnosc pozioma 4000 m.
BR
zamglenia
BKN006
5/8 - 7/8 pokrycia nieba, chmurami o podstawie: 180 metrow
OVC009
calkowite zachmurzenie o podstawie: 270 metrow
07/06
Temperatura: powietrze 7°C, punkt rosy 6°C . Wilgotnosc wzgledna 86 %
Q1028
Cisnienie: 1028 hPa

Pogoda na innym lotnisku

Pogoda Gdansk-Rebiechowo WEATHER Poland  
Pogoda Katowice WEATHER Poland  
Pogoda Krakow WEATHER Poland  
Pogoda Poznan WEATHER Poland  
Pogoda Rzeszow-Jasionka WEATHER Poland  
Pogoda Szczecin WEATHER Poland  
Pogoda Warszawa-Okecie WEATHER Poland  
Pogoda Wroclaw Ii WEATHER Poland  

Pogoda w inny kraju

Strona startowa

(C) by GREGOR 2007
Ogłoszenia Towarzyskie